Nearby METAR Reports


NZAA - Auckland Intl Ar, New Zealand
Distance from station: NW 162km
Updated: 26/04/2018 05:30
Mostly cloudy
Mostly cloudy
 Wind from NE
Wind: NE 2 km/h
Temperature: 11°C
Dew Point: 11°C
Humidity: 100%
Barometer: 1023 hPa
Clouds: Mostly cloudy
Visibility: 10 km
Cloud details: Few Clouds 914 m
Mostly cloudy 1463 m
2018/04/25 17:30 NZAA 251730Z AUTO 05001KT 9999 FEW030/// BKN048/// 11/11 Q1023 NOSIG
NZWN - Wellington Intl, New Zealand
Distance from station: SSW 357km
Updated: 26/04/2018 05:30
Few Clouds
Few Clouds
 Wind from NNE
Wind: NNE 26 km/h
Temperature: 14°C
Dew Point: 11°C
Humidity: 82%
Barometer: 1020 hPa
Clouds: Few Clouds
Visibility: 10 km
Cloud details: Few Clouds 579 m
2018/04/25 17:30 NZWN 251730Z AUTO 02014KT 9999 FEW019/// 14/11 Q1020 NOSIG
 
NZCH - Christchurch Int, New Zealand
Distance from station: SSW 647km
Updated: 26/04/2018 05:30
Clear
Clear
 Wind from W
Wind: W 4 km/h
Temperature: 4°C
Dew Point: 4°C
Humidity: 100%
Barometer: 1018 hPa
Clouds: Clear
Visibility: 9 km
2018/04/25 17:30 NZCH 251730Z AUTO 28002KT 9000 NCD 04/04 Q1018 TEMPO 0500 FG
YSNF - Norfolk Island A, Australia
Distance from station: NW 1258km
Updated: 26/04/2018 05:30
Overcast
Overcast
 Wind from E
Wind: E 28 km/h
Temperature: 21°C
Dew Point: 20°C
Humidity: 94%
Barometer: 1016 hPa
Clouds: Overcast
Visibility: 10 km
Cloud details: Mostly cloudy 183 m
Overcast 640 m
2018/04/25 17:30 YSNF 251730Z AUTO 09015KT 9999 // BKN006 OVC021 21/20 Q1016